Arctic - Eastern Arctic: Past 24 Hour Conditions

 

Cape Dorset Airport

06:00 PM EDT 19 April 2014
This table is a summary of hourly weather conditions for the past 24 hours.
Date / Time
(EDT)
Wind(knots) Conditions Visibility(km) Pressure(kPa) Air tempC) Relative humidity(%) Dew pointC) Wind Chill
19 April 2014
18:00 W 9 gust 16 Light Snow 16 101.5 -7 80 -10 -14
17:00 W 16 Mostly Cloudy 16 101.4 -7 79 -10 -16
16:00 W 15 Partly Cloudy 16 101.4 -8 80 -10 -16
15:00 W 14 Cloudy 16 101.3 -7 82 -10 -16
14:00 W 14 Sunny 16 101.3 -7 79 -10 -15
13:00 W 11 gust 16 Mostly Cloudy 16 101.3 -9 82 -11 -17
12:00 W 11 gust 16 Mostly Cloudy 16 101.3 -9 82 -12 -17
11:00 WSW 15 Light Snow 16 101.4 -10 87 -12 -20
10:00 WSW 12 gust 17 Light Snow 16 101.4 -11 87 -13 -19
9:00 WNW 7 Light Snow 16 101.4 -12 88 -14 -19
8:00 calm Sunny 16 101.4 -13 84 -15 *
7:00 calm Sunny 16 101.4 -14 87 -15 *
6:00 WNW 3 Light Snow 16 101.4 -13 86 -15 -16
5:00 WNW 9 Light Snow 16 101.4 -13 87 -15 -21
4:00 WSW 9 Light Snow 16 101.4 -13 87 -15 -21
3:00 WSW 10 gust 15 Light Snow 16 101.4 -12 86 -14 -20
2:00 WSW 11 gust 18 Light Snow 16 101.4 -13 86 -15 -21
1:00 WSW 23 gust 30 Clear 16 101.3 -13 84 -15 -25
0:00 WSW 17 gust 22 Clear 16 101.4 -12 83 -15 -23
18 April 2014
23:00 WSW 14 gust 19 Clear 16 101.4 -12 85 -14 -22
22:00 SW 12 gust 17 Cloudy 16 101.4 -11 82 -13 -19
21:00 W 16 gust 21 Mainly Clear 16 101.4 -10 75 -14 -20
20:00 W 24 gust 30 Light Snow 16 101.4 -10 76 -13 -21
19:00 W 22 gust 31 Sunny 16 101.4 -10 76 -13 -20
18:00 W 23 gust 29 Sunny 16 101.4 -10 77 -13 -20
 
Map of Arctic - Eastern Arctic marine weather areas Baker Lake Airport Chesterfield Inlet Airport Coral Harbour Airport Gjoa Haven Airport Kugaaruk Airport Rankin Inlet Airport Shepherd Bay Airport Whale Cove Airport Arctic Bay Brevoort Island Qikiqtarjuaq Airport Cape Dorset Airport Cape Dyer Cape Hooper Clyde Airport Grise Fiord Airport Hall Beach Airport Igloolik Airport Iqaluit Airport Longstaff Bluff Pangnirtung Airport Pond Inlet Airport Repulse Bay Airport Resolute Airport Resolution Island Rowley Island Airport Taloyoak Airport Wager Bay Akulivik Airport Ivujivik Airport Puvirnituq Airport Kangiqsujuaq Airport Kangirsuk Airport Quaqtaq Airport Tasiujaq Airport Cape Kakkiviak Cape Kiglapait Nain Airport Saglek Cape Mercy Kimmirut Airport Aupaluk Airport Salluit Airport Kangiqsualujjuaq Airport Fort Ross
Legend: buoyBuoy land stationLand Station